createdAt,value
2018-08-16T00:00:22.082Z,99.90
2018-08-16T00:02:50.798Z,99.90
2018-08-16T00:05:19.536Z,99.90
2018-08-16T00:07:48.383Z,99.90
2018-08-16T00:10:18.344Z,99.90
2018-08-16T00:12:48.740Z,99.90
2018-08-16T00:15:18.656Z,99.90
2018-08-16T00:17:47.750Z,99.90
2018-08-16T00:20:16.908Z,99.90
2018-08-16T00:22:46.081Z,99.90
2018-08-16T00:25:15.278Z,99.90
2018-08-16T00:27:44.095Z,99.90
2018-08-16T00:30:14.348Z,99.90
2018-08-16T00:32:43.503Z,99.90
2018-08-16T00:35:12.199Z,99.90
2018-08-16T00:37:41.146Z,99.90
2018-08-16T00:40:12.549Z,99.90
2018-08-16T00:42:41.345Z,99.90
2018-08-16T00:45:11.161Z,99.90
2018-08-16T00:47:39.857Z,99.90
2018-08-16T00:50:11.112Z,99.90
2018-08-16T00:52:40.108Z,99.90
2018-08-16T00:55:10.103Z,99.90
2018-08-16T00:57:39.358Z,99.90
2018-08-16T01:00:10.613Z,99.90
2018-08-16T01:02:39.289Z,99.90
2018-08-16T01:05:08.105Z,99.90
2018-08-16T01:07:36.844Z,99.90
2018-08-16T01:10:07.394Z,99.90
2018-08-16T01:12:36.172Z,99.90
2018-08-16T01:15:06.369Z,99.90
2018-08-16T01:17:35.123Z,99.90
2018-08-16T01:20:03.987Z,99.90
2018-08-16T01:22:32.631Z,99.90
2018-08-16T01:25:01.368Z,99.90
2018-08-16T01:27:30.145Z,99.90
2018-08-16T01:29:58.779Z,99.90
2018-08-16T01:32:27.574Z,99.90
2018-08-16T01:34:56.280Z,99.90
2018-08-16T01:37:25.025Z,99.90
2018-08-16T01:39:53.800Z,99.90
2018-08-16T01:42:22.531Z,99.90
2018-08-16T01:44:51.240Z,99.90
2018-08-16T01:47:19.987Z,99.90
2018-08-16T01:49:55.243Z,99.90
2018-08-16T01:52:24.102Z,99.90
2018-08-16T01:54:52.839Z,99.90
2018-08-16T01:57:21.649Z,99.90
2018-08-16T01:59:50.423Z,99.90
2018-08-16T02:02:19.201Z,99.90
2018-08-16T02:04:47.948Z,99.90
2018-08-16T02:07:16.671Z,99.90
2018-08-16T02:09:45.466Z,99.90
2018-08-16T02:12:14.163Z,99.90
2018-08-16T02:14:42.838Z,99.90
2018-08-16T02:17:11.593Z,99.90
2018-08-16T02:19:40.285Z,99.90
2018-08-16T02:22:09.085Z,99.90
2018-08-16T02:24:37.919Z,99.90
2018-08-16T02:27:06.894Z,99.90
2018-08-16T02:29:35.731Z,99.90
2018-08-16T02:32:04.525Z,99.90
2018-08-16T02:34:33.264Z,99.90
2018-08-16T02:37:02.077Z,99.90
2018-08-16T02:39:30.773Z,99.90
2018-08-16T02:41:59.429Z,99.90
2018-08-16T02:44:28.223Z,99.90
2018-08-16T02:46:56.918Z,99.90
2018-08-16T02:49:25.654Z,99.90
2018-08-16T02:51:54.349Z,99.90
2018-08-16T02:54:23.085Z,99.90
2018-08-16T02:56:51.834Z,99.90
2018-08-16T02:59:20.616Z,99.90
2018-08-16T03:01:49.311Z,99.90
2018-08-16T03:04:18.027Z,99.90
2018-08-16T03:06:46.682Z,99.90
2018-08-16T03:09:15.441Z,99.90
2018-08-16T03:11:44.053Z,99.90
2018-08-16T03:14:12.809Z,99.90
2018-08-16T03:16:41.484Z,99.90
2018-08-16T03:19:10.259Z,99.90
2018-08-16T03:21:38.936Z,99.90
2018-08-16T03:24:07.690Z,99.90
2018-08-16T03:26:36.466Z,99.90
2018-08-16T03:29:05.462Z,99.90
2018-08-16T03:31:34.277Z,99.90
2018-08-16T03:34:02.992Z,99.90
2018-08-16T03:36:31.776Z,99.90
2018-08-16T03:39:03.523Z,99.90
2018-08-16T03:41:32.201Z,99.90
2018-08-16T03:44:00.856Z,99.90
2018-08-16T03:46:29.511Z,99.90
2018-08-16T03:48:58.205Z,99.90
2018-08-16T03:51:26.962Z,99.90
2018-08-16T03:53:55.716Z,99.90
2018-08-16T03:56:24.393Z,99.90
2018-08-16T03:58:53.028Z,99.90
2018-08-16T04:01:21.656Z,99.90
2018-08-16T04:03:50.379Z,99.90
2018-08-16T04:06:39.636Z,99.90
2018-08-16T04:09:28.923Z,99.90
2018-08-16T04:16:56.244Z,99.90
2018-08-16T04:19:44.929Z,99.90
2018-08-16T04:37:46.314Z,99.90
2018-08-16T04:40:15.089Z,99.90
2018-08-16T04:42:43.845Z,99.90
2018-08-16T04:45:12.760Z,99.90
2018-08-16T04:47:41.656Z,99.90
2018-08-16T04:50:12.512Z,99.90
2018-08-16T04:52:41.526Z,99.90
2018-08-16T04:55:10.940Z,99.90
2018-08-16T04:57:40.335Z,99.90
2018-08-16T05:00:11.955Z,99.90
2018-08-16T05:02:41.067Z,99.90
2018-08-16T05:05:10.781Z,99.90
2018-08-16T05:07:39.957Z,99.90
2018-08-16T05:10:10.609Z,99.90
2018-08-16T05:12:40.545Z,99.90
2018-08-16T05:15:11.781Z,99.90
2018-08-16T05:17:40.636Z,99.90
2018-08-16T05:20:12.933Z,99.90
2018-08-16T05:22:42.162Z,99.90
2018-08-16T05:25:11.042Z,99.90
2018-08-16T05:27:39.758Z,99.90
2018-08-16T05:30:10.932Z,99.90
2018-08-16T05:32:39.907Z,99.90
2018-08-16T05:35:08.925Z,99.90
2018-08-16T05:37:39.200Z,99.90
2018-08-16T05:40:10.667Z,99.90
2018-08-16T05:42:39.948Z,99.90
2018-08-16T05:45:09.923Z,99.90
2018-08-16T05:47:40.441Z,99.90
2018-08-16T05:50:12.525Z,99.90
2018-08-16T05:52:42.352Z,99.90
2018-08-16T05:55:11.684Z,99.90
2018-08-16T05:57:44.439Z,99.90
2018-08-16T06:00:14.595Z,99.90
2018-08-16T06:02:45.546Z,99.90
2018-08-16T06:05:14.685Z,99.90
2018-08-16T06:07:46.329Z,99.90
2018-08-16T06:10:15.639Z,99.90
2018-08-16T06:12:44.510Z,99.90
2018-08-16T06:15:13.567Z,99.90
2018-08-16T06:17:42.750Z,99.90
2018-08-16T06:20:13.277Z,99.90
2018-08-16T06:22:42.775Z,99.90
2018-08-16T06:25:13.607Z,99.90
2018-08-16T06:27:43.621Z,99.90
2018-08-16T06:30:16.607Z,99.90
2018-08-16T06:32:46.419Z,99.90
2018-08-16T06:35:15.727Z,99.90
2018-08-16T06:37:45.149Z,99.90
2018-08-16T06:40:15.522Z,99.90
2018-08-16T06:42:45.154Z,99.90
2018-08-16T06:45:13.970Z,99.90
2018-08-16T06:47:42.844Z,99.90
2018-08-16T06:50:11.139Z,99.90
2018-08-16T06:52:39.922Z,99.90
2018-08-16T06:55:08.370Z,99.90
2018-08-16T06:57:36.649Z,99.90
2018-08-16T07:00:05.341Z,99.90
2018-08-16T07:02:33.440Z,99.90
2018-08-16T07:05:01.554Z,99.90
2018-08-16T07:07:29.770Z,99.90
2018-08-16T07:09:58.062Z,99.90
2018-08-16T07:12:26.214Z,99.90
2018-08-16T07:14:54.492Z,99.90
2018-08-16T07:17:23.392Z,99.90
2018-08-16T07:19:53.717Z,99.90
2018-08-16T07:22:23.437Z,99.90
2018-08-16T07:24:52.489Z,99.90
2018-08-16T07:27:22.613Z,99.90
2018-08-16T07:29:52.030Z,99.90
2018-08-16T07:32:21.200Z,99.90
2018-08-16T07:34:50.236Z,99.90
2018-08-16T07:37:19.114Z,99.90
2018-08-16T07:39:49.038Z,99.90
2018-08-16T07:42:18.232Z,99.90
2018-08-16T07:44:46.995Z,99.90
2018-08-16T07:47:16.021Z,99.90
2018-08-16T07:49:45.815Z,99.90
2018-08-16T07:52:15.780Z,99.90
2018-08-16T07:54:45.450Z,99.90
2018-08-16T07:57:14.732Z,99.90
2018-08-16T07:59:46.207Z,99.90
2018-08-16T08:02:14.101Z,99.90
2018-08-16T08:04:42.122Z,99.90
2018-08-16T08:07:11.365Z,99.90
2018-08-16T08:09:43.436Z,99.90
2018-08-16T08:12:12.994Z,99.90
2018-08-16T08:14:41.119Z,99.90
2018-08-16T08:17:10.937Z,99.90
2018-08-16T08:19:39.108Z,99.90
2018-08-16T08:22:07.500Z,99.90
2018-08-16T08:24:37.101Z,99.90
2018-08-16T08:27:06.356Z,99.90
2018-08-16T08:29:35.547Z,99.90
2018-08-16T08:32:04.220Z,99.80
2018-08-16T08:34:34.941Z,98.90
2018-08-16T08:37:14.905Z,96.10
2018-08-16T08:39:43.612Z,96.20
2018-08-16T08:42:22.388Z,95.10
2018-08-16T08:44:51.343Z,96.90
2018-08-16T08:47:20.052Z,97.80
2018-08-16T08:49:48.695Z,97.90
2018-08-16T08:52:17.409Z,97.60
2018-08-16T08:57:04.601Z,96.70
2018-08-16T08:59:32.535Z,96.70
2018-08-16T09:02:00.390Z,94.60
2018-08-16T09:04:29.306Z,96.00
2018-08-16T09:06:58.155Z,95.90
2018-08-16T09:09:26.308Z,96.50
2018-08-16T09:11:59.809Z,97.00
2018-08-16T09:14:42.952Z,97.80
2018-08-16T09:17:13.044Z,96.90
2018-08-16T09:19:42.418Z,96.60
2018-08-16T09:22:11.000Z,98.10
2018-08-16T09:24:41.388Z,99.30
2018-08-16T09:27:10.924Z,99.70
2018-08-16T09:30:17.099Z,99.90
2018-08-16T09:32:57.137Z,98.80
2018-08-16T09:35:28.095Z,99.80
2018-08-16T09:38:06.523Z,99.40
2018-08-16T09:40:36.902Z,98.60
2018-08-16T09:43:06.841Z,99.10
2018-08-16T09:46:57.148Z,99.70
2018-08-16T09:49:26.429Z,98.50
2018-08-16T09:52:11.471Z,98.30
2018-08-16T09:54:42.787Z,98.00
2018-08-16T09:57:14.864Z,98.90
2018-08-16T09:59:43.503Z,98.90
2018-08-16T10:02:14.349Z,98.30
2018-08-16T10:04:43.156Z,99.30
2018-08-16T10:07:13.236Z,99.90
2018-08-16T10:09:55.821Z,99.90
2018-08-16T10:12:24.781Z,99.90
2018-08-16T10:14:55.460Z,99.90
2018-08-16T10:17:24.064Z,99.90
2018-08-16T10:19:52.737Z,99.90
2018-08-16T10:22:24.926Z,99.90
2018-08-16T10:24:53.662Z,99.90
2018-08-16T10:27:23.210Z,99.90
2018-08-16T10:29:52.651Z,99.90
2018-08-16T10:32:21.629Z,99.90
2018-08-16T10:34:50.848Z,99.90
2018-08-16T10:37:19.697Z,99.90
2018-08-16T10:39:56.164Z,99.90
2018-08-16T10:42:24.746Z,99.90
2018-08-16T10:44:53.971Z,99.90
2018-08-16T10:47:24.038Z,99.90
2018-08-16T10:49:53.294Z,99.90
2018-08-16T10:52:22.838Z,99.90
2018-08-16T10:54:51.784Z,99.90
2018-08-16T10:57:20.530Z,99.90
2018-08-16T10:59:49.545Z,99.90
2018-08-16T11:02:18.155Z,99.90
2018-08-16T11:07:28.463Z,99.90
2018-08-16T11:09:57.317Z,99.90
2018-08-16T11:12:30.139Z,99.90
2018-08-16T11:14:59.043Z,99.90
2018-08-16T11:17:27.801Z,99.90
2018-08-16T11:20:05.145Z,99.90
2018-08-16T11:22:36.495Z,99.90
2018-08-16T11:25:05.570Z,99.90
2018-08-16T11:27:34.264Z,99.90
2018-08-16T11:30:02.866Z,99.90
2018-08-16T11:32:40.892Z,99.90
2018-08-16T11:35:10.348Z,99.90
2018-08-16T11:37:45.712Z,99.90
2018-08-16T11:40:15.102Z,99.90
2018-08-16T11:42:44.029Z,99.90
2018-08-16T11:45:13.622Z,99.90
2018-08-16T11:47:42.459Z,99.90
2018-08-16T11:50:13.087Z,99.90
2018-08-16T11:52:42.599Z,99.90
2018-08-16T11:55:11.443Z,99.90
2018-08-16T11:57:40.089Z,99.90
2018-08-16T12:00:08.531Z,99.90
2018-08-16T12:02:37.243Z,99.90
2018-08-16T12:05:06.104Z,99.90
2018-08-16T12:07:36.452Z,99.90
2018-08-16T12:10:06.708Z,99.90
2018-08-16T12:12:35.385Z,99.90
2018-08-16T12:15:05.900Z,99.90
2018-08-16T12:17:36.784Z,99.90
2018-08-16T12:20:12.014Z,99.90
2018-08-16T12:22:41.629Z,99.90
2018-08-16T12:25:15.180Z,99.90
2018-08-16T12:27:45.057Z,99.90
2018-08-16T12:30:15.851Z,99.90
2018-08-16T12:32:44.706Z,99.90
2018-08-16T12:35:15.063Z,99.90
2018-08-16T12:37:48.075Z,99.90
2018-08-16T12:40:18.953Z,99.90
2018-08-16T12:42:47.513Z,99.90
2018-08-16T12:45:17.194Z,99.90
2018-08-16T12:47:48.070Z,99.90
2018-08-16T12:50:19.016Z,99.90
2018-08-16T12:52:47.709Z,99.90
2018-08-16T12:55:16.672Z,99.90
2018-08-16T12:57:47.041Z,99.90
2018-08-16T13:00:17.277Z,99.90
2018-08-16T13:02:50.071Z,99.90
2018-08-16T13:05:18.987Z,99.90
2018-08-16T13:07:49.922Z,99.90
2018-08-16T13:10:18.598Z,99.90
2018-08-16T13:12:50.467Z,99.90
2018-08-16T13:15:20.156Z,99.90
2018-08-16T13:17:49.241Z,99.90
2018-08-16T13:20:17.825Z,99.90
2018-08-16T13:23:11.194Z,99.90
2018-08-16T13:25:40.040Z,99.90
2018-08-16T13:28:08.986Z,99.90
2018-08-16T13:30:37.802Z,99.90
2018-08-16T13:33:07.138Z,99.90
2018-08-16T13:35:36.053Z,99.90
2018-08-16T13:38:07.889Z,99.90
2018-08-16T13:40:36.804Z,99.90
2018-08-16T13:43:07.580Z,99.90
2018-08-16T13:45:36.645Z,99.90
2018-08-16T13:48:07.245Z,99.90
2018-08-16T13:50:36.413Z,99.90
2018-08-16T13:53:07.097Z,99.90
2018-08-16T13:55:36.057Z,99.90
2018-08-16T13:58:05.073Z,99.90
2018-08-16T14:00:35.754Z,99.90
2018-08-16T14:03:06.145Z,99.90
2018-08-16T14:05:34.719Z,99.90
2018-08-16T14:08:06.635Z,99.90
2018-08-16T14:10:35.261Z,99.90
2018-08-16T14:13:04.307Z,99.90
2018-08-16T14:15:33.760Z,99.90
2018-08-16T14:18:06.336Z,99.90
2018-08-16T14:20:36.192Z,99.90
2018-08-16T14:23:05.567Z,99.90
2018-08-16T14:25:34.265Z,99.90
2018-08-16T14:28:03.218Z,99.90
2018-08-16T14:30:32.115Z,99.90
2018-08-16T14:33:01.576Z,99.90
2018-08-16T14:35:30.725Z,99.90
2018-08-16T14:37:59.601Z,99.90
2018-08-16T14:40:37.017Z,99.90
2018-08-16T14:43:07.212Z,99.90
2018-08-16T14:45:36.128Z,99.90
2018-08-16T14:48:10.014Z,99.90
2018-08-16T14:50:42.519Z,99.90
2018-08-16T14:53:11.475Z,99.90
2018-08-16T14:55:41.591Z,99.90
2018-08-16T14:58:10.497Z,99.90
2018-08-16T15:00:39.749Z,99.90
2018-08-16T15:03:08.837Z,99.90
2018-08-16T15:05:37.506Z,99.90
2018-08-16T15:08:06.668Z,99.90
2018-08-16T15:10:35.442Z,99.90
2018-08-16T15:13:04.375Z,99.90
2018-08-16T15:15:34.214Z,99.90
2018-08-16T15:18:03.393Z,99.90
2018-08-16T15:20:32.187Z,99.90
2018-08-16T15:23:01.361Z,99.90
2018-08-16T15:25:30.216Z,99.90
2018-08-16T15:27:58.932Z,99.90
2018-08-16T15:30:27.554Z,99.90
2018-08-16T15:32:57.264Z,99.90
2018-08-16T15:35:26.098Z,99.90
2018-08-16T15:37:55.034Z,99.90
2018-08-16T15:40:23.829Z,99.90
2018-08-16T15:42:52.524Z,99.90
2018-08-16T15:45:34.480Z,99.90
2018-08-16T15:48:09.725Z,99.90
2018-08-16T15:50:38.272Z,99.90
2018-08-16T15:53:07.036Z,99.90
2018-08-16T15:58:19.473Z,99.90
2018-08-16T16:00:48.114Z,99.90
2018-08-16T16:03:16.714Z,99.90
2018-08-16T16:05:45.968Z,99.90
2018-08-16T16:08:14.861Z,99.90
2018-08-16T16:10:43.579Z,99.90
2018-08-16T16:13:12.850Z,99.90
2018-08-16T16:15:41.727Z,99.90
2018-08-16T16:18:10.530Z,99.90
2018-08-16T16:20:39.077Z,99.90
2018-08-16T16:23:08.113Z,99.90
2018-08-16T16:25:36.849Z,99.90
2018-08-16T16:28:06.084Z,99.90
2018-08-16T16:30:34.799Z,99.90
2018-08-16T16:33:03.760Z,99.90
2018-08-16T16:35:32.301Z,99.90
2018-08-16T16:38:04.548Z,99.90
2018-08-16T16:40:33.982Z,99.90
2018-08-16T16:43:02.857Z,99.90
2018-08-16T16:45:33.958Z,99.90
2018-08-16T16:48:02.928Z,99.90
2018-08-16T16:50:39.102Z,99.90
2018-08-16T16:53:11.098Z,99.90
2018-08-16T16:55:39.895Z,99.90
2018-08-16T16:58:09.024Z,99.90
2018-08-16T17:00:38.089Z,99.90
2018-08-16T17:03:08.021Z,99.90
2018-08-16T17:05:36.716Z,99.90
2018-08-16T17:08:05.805Z,99.90
2018-08-16T17:10:39.407Z,99.90
2018-08-16T17:13:09.054Z,99.90
2018-08-16T17:15:38.178Z,99.90
2018-08-16T17:18:06.908Z,99.90
2018-08-16T17:20:35.629Z,99.90
2018-08-16T17:23:04.564Z,99.90
2018-08-16T17:25:33.141Z,99.90
2018-08-16T17:28:06.314Z,99.90
2018-08-16T17:30:34.891Z,99.90
2018-08-16T17:33:03.586Z,99.90
2018-08-16T17:35:32.792Z,99.90
2018-08-16T17:38:01.622Z,99.90
2018-08-16T17:40:32.266Z,99.90
2018-08-16T17:43:00.895Z,99.90
2018-08-16T17:45:31.610Z,99.90
2018-08-16T17:48:00.359Z,99.90
2018-08-16T17:50:28.654Z,99.90
2018-08-16T17:52:56.774Z,99.90
2018-08-16T17:55:24.592Z,99.90
2018-08-16T17:57:52.522Z,99.90
2018-08-16T18:00:21.024Z,99.90
2018-08-16T18:02:50.351Z,99.90
2018-08-16T18:05:18.988Z,99.90
2018-08-16T18:07:47.619Z,99.90
2018-08-16T18:10:16.321Z,99.90
2018-08-16T18:12:45.110Z,99.90
2018-08-16T18:15:13.951Z,99.90
2018-08-16T18:17:42.580Z,99.90
2018-08-16T18:20:11.301Z,99.90
2018-08-16T18:22:40.160Z,99.90
2018-08-16T18:25:09.531Z,99.90
2018-08-16T18:27:39.226Z,99.90
2018-08-16T18:30:10.097Z,99.90
2018-08-16T18:32:39.857Z,99.90
2018-08-16T18:35:08.534Z,99.90
2018-08-16T18:37:37.449Z,99.90
2018-08-16T18:40:07.452Z,99.90
2018-08-16T18:42:36.245Z,99.90
2018-08-16T18:45:05.759Z,99.90
2018-08-16T18:47:34.494Z,99.90
2018-08-16T18:50:03.566Z,99.90
2018-08-16T18:52:32.842Z,99.90
2018-08-16T18:55:02.137Z,99.90
2018-08-16T18:57:31.659Z,99.90
2018-08-16T19:00:00.892Z,99.90
2018-08-16T19:02:33.717Z,99.90
2018-08-16T19:05:05.026Z,99.90
2018-08-16T19:07:34.470Z,99.90
2018-08-16T19:10:03.170Z,99.90
2018-08-16T19:12:31.932Z,99.90
2018-08-16T19:15:00.581Z,99.90
2018-08-16T19:17:29.276Z,99.90
2018-08-16T19:19:57.884Z,99.90
2018-08-16T19:22:26.628Z,99.90
2018-08-16T19:24:55.303Z,99.90
2018-08-16T19:27:23.959Z,99.90
2018-08-16T19:29:52.659Z,99.90
2018-08-16T19:32:21.311Z,99.90
2018-08-16T19:34:50.066Z,99.90
2018-08-16T19:37:18.801Z,99.90
2018-08-16T19:39:47.497Z,99.90
2018-08-16T19:42:16.112Z,99.90
2018-08-16T19:44:44.988Z,99.90
2018-08-16T19:47:13.603Z,99.90
2018-08-16T19:49:42.300Z,99.90
2018-08-16T19:52:10.964Z,99.90
2018-08-16T19:54:39.671Z,99.90
2018-08-16T19:57:08.588Z,99.90
2018-08-16T19:59:37.285Z,99.90
2018-08-16T20:02:05.938Z,99.90
2018-08-16T20:04:34.614Z,99.90
2018-08-16T20:07:03.336Z,99.90
2018-08-16T20:09:31.984Z,99.90
2018-08-16T20:12:00.700Z,99.90
2018-08-16T20:14:29.376Z,99.90
2018-08-16T20:16:58.234Z,99.90
2018-08-16T20:19:27.006Z,99.90
2018-08-16T20:21:55.611Z,99.90
2018-08-16T20:24:24.300Z,99.90
2018-08-16T20:26:52.993Z,99.90
2018-08-16T20:29:21.689Z,99.90
2018-08-16T20:31:50.425Z,99.90
2018-08-16T20:34:19.341Z,99.90
2018-08-16T20:36:48.036Z,99.90
2018-08-16T20:39:16.732Z,99.90
2018-08-16T20:41:45.353Z,99.90
2018-08-16T20:44:14.102Z,99.90
2018-08-16T20:46:42.750Z,99.90
2018-08-16T20:49:11.454Z,99.90
2018-08-16T20:51:40.070Z,99.90
2018-08-16T20:54:09.146Z,99.90
2018-08-16T20:56:37.862Z,99.90
2018-08-16T20:59:06.639Z,99.90
2018-08-16T21:01:35.261Z,99.90
2018-08-16T21:04:03.988Z,99.90
2018-08-16T21:06:32.725Z,99.90
2018-08-16T21:09:01.459Z,99.90
2018-08-16T21:11:30.175Z,99.90
2018-08-16T21:13:59.530Z,99.90
2018-08-16T21:16:28.306Z,99.90
2018-08-16T21:18:57.002Z,99.90
2018-08-16T21:21:25.956Z,99.90
2018-08-16T21:23:54.858Z,99.90
2018-08-16T21:26:23.668Z,99.90
2018-08-16T21:28:52.348Z,99.90
2018-08-16T21:31:20.998Z,99.90
2018-08-16T21:33:49.674Z,99.90
2018-08-16T21:36:18.450Z,99.90
2018-08-16T21:38:47.117Z,99.90
2018-08-16T21:41:15.841Z,99.90
2018-08-16T21:43:44.587Z,99.90
2018-08-16T21:46:13.293Z,99.90
2018-08-16T21:48:42.148Z,99.90
2018-08-16T21:51:10.751Z,99.90
2018-08-16T21:53:39.405Z,99.90
2018-08-16T21:56:08.095Z,99.90
2018-08-16T21:58:36.751Z,99.90
2018-08-16T22:01:06.746Z,99.90
2018-08-16T22:03:35.422Z,99.90
2018-08-16T22:06:07.296Z,99.90
2018-08-16T22:08:43.812Z,99.90
2018-08-16T22:11:12.447Z,99.90
2018-08-16T22:13:41.392Z,99.90
2018-08-16T22:16:10.241Z,99.90
2018-08-16T22:18:39.356Z,99.90
2018-08-16T22:21:08.411Z,99.90
2018-08-16T22:23:37.165Z,99.90
2018-08-16T22:26:05.889Z,99.90
2018-08-16T22:28:34.587Z,99.90
2018-08-16T22:31:03.333Z,99.90
2018-08-16T22:33:32.151Z,99.90
2018-08-16T22:36:00.811Z,99.90
2018-08-16T22:38:29.419Z,99.90
2018-08-16T22:40:58.116Z,99.90
2018-08-16T22:43:26.795Z,99.90
2018-08-16T22:45:55.469Z,99.90
2018-08-16T22:48:24.361Z,99.90
2018-08-16T22:50:53.118Z,99.90
2018-08-16T22:53:22.173Z,99.90
2018-08-16T22:55:50.848Z,99.90
2018-08-16T22:58:19.467Z,99.90
2018-08-16T23:00:48.078Z,99.90
2018-08-16T23:03:16.839Z,99.90
2018-08-16T23:05:45.570Z,99.90
2018-08-16T23:08:14.225Z,99.90
2018-08-16T23:10:42.901Z,99.90
2018-08-16T23:13:11.596Z,99.90
2018-08-16T23:15:40.387Z,99.90
2018-08-16T23:18:15.528Z,99.90
2018-08-16T23:20:44.162Z,99.90
2018-08-16T23:23:12.798Z,99.90
2018-08-16T23:25:41.474Z,99.90
2018-08-16T23:28:10.172Z,99.90
2018-08-16T23:30:38.909Z,99.90
2018-08-16T23:33:08.180Z,99.90
2018-08-16T23:35:37.016Z,99.90
2018-08-16T23:38:05.812Z,99.90
2018-08-16T23:40:34.588Z,99.90
2018-08-16T23:43:03.323Z,99.90
2018-08-16T23:45:32.000Z,99.90
2018-08-16T23:48:11.815Z,99.90
2018-08-16T23:50:40.569Z,99.90
2018-08-16T23:53:09.285Z,99.90
2018-08-16T23:55:38.001Z,99.90
2018-08-16T23:58:06.696Z,99.90
